Time;durP1;ratioP1;P1;durP2;ratioP2;P2;SDS_P1;SDS_P2;PMS_P1;PMS_P2;Temp;Humidity;BMP_temperature;BMP_pressure;BME280_temperature;BME280_humidity;BME280_pressure;Samples;Min_cycle;Max_cycle;Signal;HPM_P1;HPM_P2
2021/11/17 02:28:00;;;;;;;0.00;0.00;;;;;;;7.19;81.67;99741.84;5112256;28;20084;-73
2021/11/17 02:30:38;;;;;;;0.00;0.00;;;;;;;7.22;81.07;99741.34;5107686;28;20047;-73
2021/11/17 02:33:10;;;;;;;0.00;0.00;;;;;;;7.25;81.12;99748.06;5111542;28;20080;-73
2021/11/17 02:36:02;;;;;;;0.00;0.00;;;;;;;7.29;80.81;99740.44;5112041;28;20023;-74
2021/11/17 02:39:15;;;;;;;0.00;0.00;;;;;;;7.30;80.12;99745.50;5079967;28;20087;-72
2021/11/17 02:41:49;;;;;;;0.00;0.00;;;;;;;7.30;80.29;99750.81;5104327;28;20036;-74
2021/11/17 02:44:18;;;;;;;0.00;0.00;;;;;;;7.29;79.77;99753.72;5109816;28;20097;-73
2021/11/17 02:46:56;;;;;;;0.00;0.00;;;;;;;7.28;80.32;99749.44;5110426;28;20042;-73
2021/11/17 02:49:30;;;;;;;0.00;0.00;;;;;;;7.27;80.40;99750.50;5110042;28;20105;-74
2021/11/17 02:52:20;;;;;;;0.30;0.30;;;;;;;7.16;80.51;99742.28;5111770;28;20609;-74
2021/11/17 02:55:30;;;;;;;0.00;0.00;;;;;;;7.10;80.41;99737.13;5110149;28;20129;-75
2021/11/17 02:58:14;;;;;;;0.00;0.00;;;;;;;7.13;80.51;99753.44;5097071;28;20034;-72
2021/11/17 03:01:17;;;;;;;0.00;0.00;;;;;;;7.08;80.72;99749.84;5111250;28;20063;-72
2021/11/17 03:04:11;;;;;;;0.00;0.00;;;;;;;7.03;81.09;99751.38;5104781;28;20474;-73
2021/11/17 03:07:10;;;;;;;0.00;0.00;;;;;;;7.03;81.07;99742.56;5093054;28;20512;-72
2021/11/17 03:09:44;;;;;;;0.10;0.10;;;;;;;7.07;81.41;99749.03;5079750;28;20115;-72
2021/11/17 03:12:31;;;;;;;0.00;0.00;;;;;;;7.10;81.41;99753.09;5111351;28;20070;-73
2021/11/17 03:15:26;;;;;;;0.00;0.00;;;;;;;7.03;80.89;99734.59;5110394;28;20035;-73
2021/11/17 03:18:01;;;;;;;0.00;0.00;;;;;;;7.13;80.57;99748.09;5110291;28;20028;-72
2021/11/17 03:20:51;;;;;;;0.00;0.00;;;;;;;7.03;81.06;99729.25;5093250;28;20030;-75
2021/11/17 03:23:36;;;;;;;0.00;0.00;;;;;;;7.11;80.57;99741.41;5110964;28;20103;-71
2021/11/17 03:26:20;;;;;;;0.00;0.00;;;;;;;7.04;81.19;99738.88;5109725;28;20039;-71
2021/11/17 03:29:24;;;;;;;0.00;0.00;;;;;;;7.02;81.21;99738.31;5110005;28;20525;-74
2021/11/17 03:31:52;;;;;;;0.00;0.00;;;;;;;6.99;81.07;99749.41;5109729;28;20062;-69
2021/11/17 03:34:54;;;;;;;0.00;0.00;;;;;;;6.92;81.89;99735.44;5111132;28;20028;-70
2021/11/17 03:37:43;;;;;;;0.00;0.00;;;;;;;6.86;81.69;99723.88;5097011;28;20036;-70
2021/11/17 03:40:40;;;;;;;0.00;0.00;;;;;;;6.84;82.04;99720.66;5112106;28;20418;-72
2021/11/17 03:43:21;;;;;;;0.00;0.00;;;;;;;6.80;82.10;99733.59;5115147;28;20101;-72
2021/11/17 03:46:22;;;;;;;0.00;0.00;;;;;;;6.77;82.29;99742.03;5113914;28;20475;-71
2021/11/17 03:48:50;;;;;;;0.00;0.00;;;;;;;6.75;82.40;99728.19;5059667;28;20127;-71
2021/11/17 03:51:33;;;;;;;0.00;0.00;;;;;;;6.74;82.74;99729.22;5123847;27;20031;-71
2021/11/17 03:54:22;;;;;;;0.08;0.08;;;;;;;6.66;82.88;99717.09;5114776;28;20028;-71
2021/11/17 03:57:12;;;;;;;0.00;0.00;;;;;;;6.77;82.48;99735.94;5114047;28;20607;-72
2021/11/17 03:59:53;;;;;;;0.00;0.00;;;;;;;6.74;82.27;99729.22;5114274;28;20031;-69
2021/11/17 04:02:27;;;;;;;0.00;0.00;;;;;;;6.70;82.34;99704.13;5113032;28;20108;-69
2021/11/17 04:05:05;;;;;;;0.43;0.43;;;;;;;6.85;82.06;99725.72;5114842;28;20059;-69
2021/11/17 04:07:57;;;;;;;0.00;0.00;;;;;;;6.86;82.02;99727.34;5114914;27;20062;-70
2021/11/17 04:11:13;;;;;;;0.00;0.00;;;;;;;6.92;81.99;99732.78;5098035;28;20170;-72
2021/11/17 04:14:27;;;;;;;0.00;0.00;;;;;;;6.95;81.97;99742.94;5079316;28;20092;-72
2021/11/17 04:16:58;;;;;;;0.00;0.00;;;;;;;6.97;82.19;99735.53;5041193;28;20405;-72
2021/11/17 04:19:33;;;;;;;0.00;0.00;;;;;;;7.00;81.88;99743.84;5114195;28;20092;-72
2021/11/17 04:22:33;;;;;;;0.00;0.00;;;;;;;6.92;81.69;99728.28;5113741;28;20507;-72
2021/11/17 04:25:20;;;;;;;0.00;0.00;;;;;;;6.96;82.11;99736.59;5100212;28;20016;-72
2021/11/17 04:28:13;;;;;;;0.00;0.00;;;;;;;7.11;81.51;99754.72;5110483;28;20591;-74
2021/11/17 04:31:02;;;;;;;0.00;0.00;;;;;;;7.09;81.45;99752.25;5092677;28;20063;-74
2021/11/17 04:33:46;;;;;;;0.00;0.00;;;;;;;7.14;81.45;99760.38;5091858;28;20032;-73
2021/11/17 04:36:40;;;;;;;0.00;0.00;;;;;;;7.07;81.65;99742.91;5095421;28;20032;-74
2021/11/17 04:40:03;;;;;;;0.00;0.00;;;;;;;7.17;80.99;99759.88;5112469;28;20518;-73
2021/11/17 04:42:41;;;;;;;0.17;0.17;;;;;;;7.10;81.46;99745.09;5030046;28;20104;-73
2021/11/17 04:45:15;;;;;;;0.00;0.00;;;;;;;7.21;81.19;99747.75;5013345;28;20029;-72
2021/11/17 04:48:05;;;;;;;0.00;0.00;;;;;;;7.18;81.31;99742.09;5080372;27;20044;-72
2021/11/17 04:50:37;;;;;;;0.00;0.00;;;;;;;7.27;81.58;99753.94;5102097;28;20055;-72
2021/11/17 04:53:28;;;;;;;0.00;0.00;;;;;;;7.21;80.93;99736.28;5100320;28;20604;-73
2021/11/17 04:56:05;;;;;;;0.00;0.00;;;;;;;7.32;80.92;99756.72;5101278;28;20032;-70
2021/11/17 04:58:34;;;;;;;0.00;0.00;;;;;;;7.37;80.72;99758.66;5112590;28;20020;-70
2021/11/17 05:01:21;;;;;;;0.00;0.00;;;;;;;7.41;80.66;99756.34;5113595;28;20027;-69
2021/11/17 05:03:55;;;;;;;0.20;0.20;;;;;;;7.41;81.07;99756.34;5112297;28;20039;-71
2021/11/17 05:06:55;;;;;;;0.00;0.00;;;;;;;7.42;80.45;99758.78;5113471;28;20114;-71
2021/11/17 05:09:41;;;;;;;0.00;0.00;;;;;;;7.43;80.41;99765.69;5112530;28;20024;-70
2021/11/17 05:12:33;;;;;;;0.00;0.00;;;;;;;7.45;80.28;99765.47;5111909;28;20051;-70
2021/11/17 05:15:26;;;;;;;0.00;0.00;;;;;;;7.44;80.05;99769.97;5111703;28;20071;-70
2021/11/17 05:18:03;;;;;;;0.00;0.00;;;;;;;7.48;80.17;99763.16;5108259;28;20051;-69
2021/11/17 05:20:52;;;;;;;0.00;0.00;;;;;;;7.49;79.63;99772.72;5112603;28;20027;-71
2021/11/17 05:23:27;;;;;;;0.00;0.00;;;;;;;7.51;79.79;99772.50;5110010;28;20495;-78
2021/11/17 05:26:01;;;;;;;0.00;0.00;;;;;;;7.51;79.76;99781.28;5111397;28;20056;-72
2021/11/17 05:28:53;;;;;;;0.00;0.00;;;;;;;7.46;79.43;99761.78;5112472;28;20027;-73
2021/11/17 05:31:33;;;;;;;0.00;0.00;;;;;;;7.44;80.55;99753.22;5111423;28;20055;-73
2021/11/17 05:34:15;;;;;;;0.00;0.00;;;;;;;7.39;80.80;99745.13;5096032;28;20032;-73
2021/11/17 05:36:59;;;;;;;0.00;0.00;;;;;;;7.54;80.61;99782.66;5096672;28;20482;-73
2021/11/17 05:39:36;;;;;;;0.10;0.10;;;;;;;7.51;81.04;99780.50;5095187;28;20076;-73
2021/11/17 05:42:26;;;;;;;0.00;0.00;;;;;;;7.58;81.02;99785.66;5112942;28;20020;-73
2021/11/17 05:45:30;;;;;;;0.00;0.00;;;;;;;7.58;80.88;99781.16;5110795;28;20088;-73
2021/11/17 05:48:02;;;;;;;0.00;0.00;;;;;;;7.57;81.17;99779.53;5107533;28;20036;-74
2021/11/17 05:50:42;;;;;;;0.00;0.00;;;;;;;7.58;80.82;99780.34;5111338;28;20060;-73
2021/11/17 05:53:38;;;;;;;0.00;0.00;;;;;;;7.58;81.00;99786.50;5111214;28;20035;-74
2021/11/17 05:56:29;;;;;;;0.00;0.00;;;;;;;7.60;80.87;99786.25;5097108;28;20043;-73
2021/11/17 05:59:29;;;;;;;0.00;0.00;;;;;;;7.52;80.78;99776.78;5101328;28;20058;-74
2021/11/17 06:02:12;;;;;;;0.00;0.00;;;;;;;7.61;80.74;99798.50;5097004;28;20061;-74
2021/11/17 06:04:37;;;;;;;0.00;0.00;;;;;;;7.60;80.24;99800.34;5112552;28;20122;-74
2021/11/17 06:07:03;;;;;;;0.00;0.00;;;;;;;7.62;80.11;99794.81;5111056;28;20119;-74
2021/11/17 06:09:28;;;;;;;0.10;0.10;;;;;;;7.63;80.00;99793.75;5110797;28;20027;-75
2021/11/17 06:12:04;;;;;;;0.00;0.00;;;;;;;7.57;79.83;99781.38;5111144;28;20023;-74
2021/11/17 06:14:42;;;;;;;0.00;0.00;;;;;;;7.65;80.39;99789.81;5112165;28;20024;-73
2021/11/17 06:17:13;;;;;;;0.00;0.00;;;;;;;7.65;80.52;99787.16;5110767;28;20578;-74
2021/11/17 06:19:42;;;;;;;0.73;0.73;;;;;;;7.58;80.31;99775.00;5110820;28;20069;-75
2021/11/17 06:22:11;;;;;;;0.00;0.00;;;;;;;7.68;80.79;99797.31;5110497;28;20118;-75
2021/11/17 06:24:37;;;;;;;;;;;;;;;7.69;80.84;99798.13;5112598;28;20024;-75
2021/11/17 06:27:06;;;;;;;1.55;1.45;;;;;;;7.63;80.96;99797.22;5110825;28;19916;-75
2021/11/17 06:29:39;;;;;;;0.00;0.00;;;;;;;7.67;80.94;99802.88;5110394;28;20032;-75
2021/11/17 06:32:07;;;;;;;0.00;0.00;;;;;;;7.67;81.21;99801.03;5112029;28;20023;-74
2021/11/17 06:34:44;;;;;;;0.00;0.00;;;;;;;7.71;81.37;99803.22;5111909;28;20047;-74
2021/11/17 06:37:14;;;;;;;0.10;0.10;;;;;;;7.73;81.00;99801.13;5110489;28;20070;-74
2021/11/17 06:39:46;;;;;;;0.00;0.00;;;;;;;7.71;80.41;99795.22;5111607;28;20031;-74
2021/11/17 06:42:15;;;;;;;0.00;0.00;;;;;;;7.72;80.32;99796.84;5111478;28;20216;-74
2021/11/17 06:44:43;;;;;;;0.00;0.00;;;;;;;7.66;80.31;99790.63;5110397;28;20028;-74
2021/11/17 06:47:09;;;;;;;0.00;0.00;;;;;;;7.74;80.24;99802.72;5111507;28;20031;-74
2021/11/17 06:49:35;;;;;;;0.03;0.03;;;;;;;7.69;80.20;99792.81;5111588;28;20103;-74
2021/11/17 06:52:01;;;;;;;0.00;0.00;;;;;;;7.75;80.30;99793.69;5111720;28;20038;-73
2021/11/17 06:54:27;;;;;;;0.00;0.00;;;;;;;7.79;80.30;99795.66;5111539;28;20459;-74
2021/11/17 06:56:53;;;;;;;0.00;0.00;;;;;;;7.80;80.28;99794.59;5111528;28;20067;-74
2021/11/17 06:59:18;;;;;;;0.00;0.00;;;;;;;7.76;79.99;99771.34;5111110;28;20020;-74
2021/11/17 07:01:44;;;;;;;0.00;0.00;;;;;;;7.83;79.84;99786.13;5110192;28;20106;-75
2021/11/17 07:04:10;;;;;;;0.00;0.00;;;;;;;7.87;79.66;99785.66;5111420;28;20020;-75
2021/11/17 07:06:36;;;;;;;0.00;0.00;;;;;;;7.90;79.00;99785.16;5111830;28;20028;-75
2021/11/17 07:09:04;;;;;;;0.00;0.00;;;;;;;7.91;78.97;99771.63;5109916;28;20024;-73
2021/11/17 07:11:36;;;;;;;0.00;0.00;;;;;;;7.89;78.92;99773.72;5110049;28;20031;-76
2021/11/17 07:14:04;;;;;;;0.00;0.00;;;;;;;7.91;78.40;99784.94;5109415;28;20055;-74
2021/11/17 07:16:29;;;;;;;0.00;0.00;;;;;;;7.81;76.71;99766.94;5110013;28;20036;-74
2021/11/17 07:18:56;;;;;;;0.00;0.00;;;;;;;7.81;76.57;99777.59;5110085;28;20056;-74
2021/11/17 07:21:21;;;;;;;0.00;0.00;;;;;;;7.82;76.90;99784.53;5111233;28;20102;-75
2021/11/17 07:23:47;;;;;;;0.00;0.00;;;;;;;7.83;76.50;99785.31;5111107;28;20110;-75
2021/11/17 07:26:12;;;;;;;0.10;0.10;;;;;;;7.83;76.50;99788.78;5109750;28;20023;-75
2021/11/17 07:28:39;;;;;;;0.00;0.00;;;;;;;7.82;76.70;99781.03;5110923;28;20027;-73
2021/11/17 07:31:05;;;;;;;0.00;0.00;;;;;;;7.85;76.57;99792.03;5111342;28;20024;-73
2021/11/17 07:33:30;;;;;;;0.00;0.00;;;;;;;7.85;76.21;99792.03;5109725;28;20020;-73
2021/11/17 07:35:56;;;;;;;0.00;0.00;;;;;;;7.85;76.82;99781.38;5111238;28;20067;-74
2021/11/17 07:38:24;;;;;;;0.00;0.00;;;;;;;7.74;76.65;99770.78;5111199;28;20030;-74
2021/11/17 07:40:51;;;;;;;0.07;0.07;;;;;;;7.81;75.37;99784.75;5109867;28;20028;-74
2021/11/17 07:43:18;;;;;;;0.08;0.08;;;;;;;7.79;75.35;99771.69;5110701;28;20024;-74
2021/11/17 07:45:45;;;;;;;0.73;0.37;;;;;;;7.71;75.80;99768.59;5111075;28;20031;-73
2021/11/17 07:48:12;;;;;;;0.45;0.45;;;;;;;7.78;76.22;99782.59;5109762;28;20265;-74
2021/11/17 07:50:39;;;;;;;0.00;0.00;;;;;;;7.67;75.33;99765.63;5109739;28;20016;-74
2021/11/17 07:53:07;;;;;;;0.00;0.00;;;;;;;7.76;75.31;99782.00;5109731;28;20027;-73
2021/11/17 07:55:32;;;;;;;0.00;0.00;;;;;;;7.79;75.97;99781.53;5111089;28;20031;-74
2021/11/17 07:57:58;;;;;;;0.00;0.00;;;;;;;7.75;75.76;99777.72;5109785;28;20076;-75
2021/11/17 08:00:27;;;;;;;0.00;0.00;;;;;;;7.80;75.57;99785.78;5109452;28;20555;-74
2021/11/17 08:02:54;;;;;;;0.00;0.00;;;;;;;7.77;75.73;99771.09;5111255;28;20475;-74
2021/11/17 08:05:21;;;;;;;0.00;0.00;;;;;;;7.84;74.54;99779.75;5109431;28;20111;-74
2021/11/17 08:07:47;;;;;;;0.00;0.00;;;;;;;7.85;74.51;99781.38;5109563;28;20160;-74
2021/11/17 08:10:16;;;;;;;0.00;0.00;;;;;;;7.78;75.32;99766.59;5109046;28;20523;-74
2021/11/17 08:12:41;;;;;;;0.52;0.45;;;;;;;7.86;74.61;99787.53;5111015;28;20031;-74
2021/11/17 08:15:08;;;;;;;0.00;0.00;;;;;;;7.86;74.29;99790.19;5109641;28;20565;-73
2021/11/17 08:17:33;;;;;;;0.00;0.00;;;;;;;7.87;74.99;99783.78;5110646;28;20035;-74
2021/11/17 08:19:59;;;;;;;0.00;0.00;;;;;;;7.92;75.94;99781.25;5110602;28;20030;-74
2021/11/17 08:22:25;;;;;;;0.00;0.00;;;;;;;7.91;74.68;99776.97;5109190;28;20119;-74
2021/11/17 08:24:50;;;;;;;0.00;0.00;;;;;;;7.83;74.54;99772.00;5111133;28;20030;-74
2021/11/17 08:27:18;;;;;;;0.00;0.00;;;;;;;7.81;74.29;99766.09;5112873;28;20055;-74
2021/11/17 08:29:50;;;;;;;0.00;0.00;;;;;;;7.91;73.94;99776.13;5113039;28;20114;-76
2021/11/17 08:32:16;;;;;;;0.00;0.00;;;;;;;7.92;74.57;99777.75;5112594;28;20032;-74
2021/11/17 08:34:42;;;;;;;0.00;0.00;;;;;;;7.91;74.32;99779.63;5112999;28;20051;-74
2021/11/17 08:37:08;;;;;;;0.10;0.10;;;;;;;7.82;74.41;99771.22;5114342;28;20463;-74
2021/11/17 08:39:34;;;;;;;0.00;0.00;;;;;;;7.80;73.55;99770.63;5112668;28;20031;-74
2021/11/17 08:41:59;;;;;;;0.15;0.15;;;;;;;7.90;73.92;99785.16;5113949;28;20464;-74
2021/11/17 08:44:25;;;;;;;0.00;0.00;;;;;;;7.92;73.46;99786.56;5112577;28;20027;-74
2021/11/17 08:46:50;;;;;;;0.00;0.00;;;;;;;7.84;73.91;99769.09;5112655;28;20061;-74
2021/11/17 08:49:16;;;;;;;0.00;0.00;;;;;;;7.84;74.15;99765.66;5113683;28;20459;-74
2021/11/17 08:51:42;;;;;;;0.00;0.00;;;;;;;7.96;74.61;99779.69;5114140;28;20024;-74
2021/11/17 08:54:07;;;;;;;0.35;0.35;;;;;;;8.00;74.93;99778.16;5112663;28;20023;-74
2021/11/17 08:56:35;;;;;;;0.00;0.00;;;;;;;7.97;74.21;99772.50;5112431;28;20505;-74
2021/11/17 08:59:01;;;;;;;0.25;0.25;;;;;;;8.08;74.77;99782.31;5112557;28;20406;-74
2021/11/17 09:01:29;;;;;;;0.00;0.00;;;;;;;8.08;74.78;99768.97;5112225;28;20533;-74
2021/11/17 09:03:54;;;;;;;0.20;0.20;;;;;;;8.22;73.52;99782.00;5112429;28;20057;-74
2021/11/17 09:06:19;;;;;;;0.00;0.00;;;;;;;8.27;73.48;99790.06;5112145;28;20467;-74
2021/11/17 09:08:45;;;;;;;0.00;0.00;;;;;;;8.34;73.44;99788.84;5112307;28;20300;-74
2021/11/17 09:11:16;;;;;;;0.13;0.13;;;;;;;8.33;72.94;99775.75;5112304;28;20069;-74
2021/11/17 09:13:42;;;;;;;0.00;0.00;;;;;;;8.47;73.41;99786.91;5113318;28;20027;-74
2021/11/17 09:16:08;;;;;;;0.00;0.00;;;;;;;8.54;72.79;99776.09;5113560;28;20028;-75
2021/11/17 09:18:36;;;;;;;0.00;0.00;;;;;;;8.55;72.48;99777.72;5113271;28;20024;-75
2021/11/17 09:21:05;;;;;;;0.00;0.00;;;;;;;8.57;72.02;99779.09;5112127;28;20490;-74
2021/11/17 09:23:31;;;;;;;0.00;0.00;;;;;;;8.62;72.16;99773.81;5112961;28;20110;-74
2021/11/17 09:25:59;;;;;;;0.00;0.00;;;;;;;8.58;72.03;99764.72;5112112;28;20518;-74
2021/11/17 09:28:26;;;;;;;0.00;0.00;;;;;;;8.42;71.72;99736.19;5111416;28;20039;-74
2021/11/17 09:30:52;;;;;;;0.00;0.00;;;;;;;8.71;71.76;99768.88;5113544;28;20032;-73
2021/11/17 09:33:19;;;;;;;0.00;0.00;;;;;;;8.78;71.88;99768.72;5111514;28;20406;-74
2021/11/17 09:35:45;;;;;;;0.00;0.00;;;;;;;8.80;71.34;99772.75;5113163;28;20031;-74
2021/11/17 09:38:13;;;;;;;0.00;0.00;;;;;;;8.79;70.79;99773.00;5111101;28;20107;-74
2021/11/17 09:40:58;;;;;;;0.00;0.00;;;;;;;8.74;70.43;99767.56;5111452;28;20039;-75
2021/11/17 09:43:38;;;;;;;0.00;0.00;;;;;;;8.70;70.72;99767.25;5112492;28;20516;-74
2021/11/17 09:46:05;;;;;;;0.98;0.90;;;;;;;8.65;70.61;99752.03;5111233;28;20458;-74
2021/11/17 09:48:35;;;;;;;0.00;0.00;;;;;;;8.64;71.22;99750.41;5111323;28;20123;-74
2021/11/17 09:51:20;;;;;;;0.00;0.00;;;;;;;8.65;71.48;99751.19;5112422;27;20051;-73
2021/11/17 09:53:58;;;;;;;0.00;0.00;;;;;;;8.63;71.47;99750.66;5112476;28;20510;-73
2021/11/17 09:56:36;;;;;;;0.08;0.08;;;;;;;8.60;71.29;99751.13;5111208;28;20052;-73
2021/11/17 09:59:13;;;;;;;0.17;0.17;;;;;;;8.57;70.91;99751.59;5112956;28;20518;-73
2021/11/17 10:01:50;;;;;;;0.20;0.20;;;;;;;8.48;71.07;99744.03;5112149;28;20034;-73
2021/11/17 10:04:21;;;;;;;0.00;0.00;;;;;;;8.59;70.88;99749.50;5111267;28;20023;-73
2021/11/17 10:12:59;;;;;;;0.00;0.00;;;;;;;8.65;71.46;99732.53;5112520;28;20056;-74
2021/11/17 10:15:29;;;;;;;0.00;0.00;;;;;;;8.58;71.44;99718.56;5110892;28;20084;-73
2021/11/17 10:18:18;;;;;;;0.00;0.00;;;;;;;8.71;71.18;99725.41;5112265;28;20045;-74
2021/11/17 10:20:47;;;;;;;0.10;0.10;;;;;;;8.72;70.60;99727.81;5098546;28;20071;-75
2021/11/17 10:23:23;;;;;;;0.00;0.00;;;;;;;8.64;70.67;99712.25;5110918;28;20546;-75
2021/11/17 10:26:04;;;;;;;0.38;0.38;;;;;;;8.63;71.42;99708.78;5110944;28;20032;-75
2021/11/17 10:28:49;;;;;;;0.00;0.00;;;;;;;8.61;70.32;99702.09;5110643;28;20084;-74
2021/11/17 10:31:31;;;;;;;0.00;0.00;;;;;;;8.69;70.91;99716.84;5111115;28;20078;-74
2021/11/17 10:34:05;;;;;;;0.00;0.00;;;;;;;8.71;71.39;99717.41;5110754;28;20426;-74
2021/11/17 10:36:51;;;;;;;0.00;0.00;;;;;;;8.70;71.29;99707.78;5110486;28;20402;-74
2021/11/17 10:39:39;;;;;;;0.20;0.20;;;;;;;8.72;71.31;99701.16;5111716;28;20034;-74
2021/11/17 10:42:35;;;;;;;0.00;0.00;;;;;;;8.56;70.89;99678.81;5110588;28;20031;-74
2021/11/17 10:45:10;;;;;;;0.00;0.00;;;;;;;8.73;71.10;99702.78;5107664;28;20067;-74
2021/11/17 10:47:39;;;;;;;0.00;0.00;;;;;;;8.73;70.92;99691.31;5111372;28;20429;-74
2021/11/17 10:50:04;;;;;;;0.00;0.00;;;;;;;8.76;71.54;99696.97;5109605;28;20076;-74
2021/11/17 10:52:39;;;;;;;0.00;0.00;;;;;;;8.79;71.66;99712.44;5111334;28;20101;-74
2021/11/17 10:55:16;;;;;;;0.00;0.00;;;;;;;8.78;70.67;99691.38;5111497;28;20023;-74
2021/11/17 10:57:42;;;;;;;0.00;0.00;;;;;;;8.76;70.90;99686.28;5110194;28;20034;-74
2021/11/17 11:00:10;;;;;;;0.00;0.00;;;;;;;8.80;69.90;99703.41;5110252;28;20031;-74
2021/11/17 11:02:39;;;;;;;0.00;0.00;;;;;;;8.76;70.50;99688.13;5110072;28;20027;-73
2021/11/17 11:05:29;;;;;;;1.05;1.05;;;;;;;8.66;71.21;99667.47;5110304;28;20031;-73
2021/11/17 11:08:03;;;;;;;0.60;0.30;;;;;;;8.75;71.00;99679.34;5110304;28;20102;-73
2021/11/17 11:10:39;;;;;;;0.08;0.08;;;;;;;8.74;71.07;99680.41;5110026;28;20031;-75
2021/11/17 11:13:10;;;;;;;0.00;0.00;;;;;;;8.74;71.11;99680.41;5111197;28;20027;-74
2021/11/17 11:15:36;;;;;;;0.82;0.82;;;;;;;8.76;71.00;99690.81;5109869;28;20026;-74
2021/11/17 11:18:04;;;;;;;0.10;0.10;;;;;;;8.74;70.83;99674.25;5110145;28;20103;-74
2021/11/17 11:20:46;;;;;;;4.55;1.85;;;;;;;8.67;70.72;99673.63;5109834;28;20147;-75
2021/11/17 11:23:15;;;;;;;0.00;0.00;;;;;;;8.60;69.98;99661.28;5111151;28;20024;-73
2021/11/17 11:25:52;;;;;;;0.00;0.00;;;;;;;8.71;71.12;99677.41;5110877;28;20046;-73
2021/11/17 11:28:21;;;;;;;0.00;0.00;;;;;;;8.61;70.27;99659.44;5110940;28;20024;-75
2021/11/17 11:31:09;;;;;;;0.00;0.00;;;;;;;8.70;70.77;99670.47;5111143;28;20031;-75
2021/11/17 11:33:40;;;;;;;0.15;0.15;;;;;;;8.69;71.14;99669.66;5108864;28;20028;-75
2021/11/17 11:36:11;;;;;;;0.55;0.55;;;;;;;8.72;70.49;99668.38;5109460;28;20132;-73
2021/11/17 11:38:49;;;;;;;0.32;0.32;;;;;;;8.71;71.67;99664.09;5109265;28;20039;-72
2021/11/17 11:41:36;;;;;;;0.00;0.00;;;;;;;8.70;71.03;99668.59;5106079;28;20107;-72
2021/11/17 11:44:20;;;;;;;0.10;0.10;;;;;;;8.69;71.08;99667.00;5104660;28;20019;-74
2021/11/17 11:46:50;;;;;;;0.00;0.00;;;;;;;8.59;71.23;99650.88;5104040;28;20101;-73
2021/11/17 11:49:37;;;;;;;0.00;0.00;;;;;;;8.68;72.30;99662.72;5109561;28;20488;-73
2021/11/17 11:52:20;;;;;;;0.35;0.35;;;;;;;8.71;71.81;99667.53;5111080;28;20035;-73
2021/11/17 11:54:53;;;;;;;0.00;0.00;;;;;;;8.67;71.88;99649.63;5110600;28;20072;-81
2021/11/17 11:57:30;;;;;;;0.00;0.00;;;;;;;8.81;72.51;99667.69;5111218;28;20093;-74
2021/11/17 12:00:23;;;;;;;0.00;0.00;;;;;;;8.79;71.77;99658.31;5110382;28;20054;-73
2021/11/17 12:02:52;;;;;;;0.28;0.28;;;;;;;8.83;72.01;99663.97;5114546;28;20594;-74
2021/11/17 12:05:36;;;;;;;0.00;0.00;;;;;;;8.84;71.59;99654.88;5114618;28;20021;-74
2021/11/17 12:08:16;;;;;;;0.00;0.00;;;;;;;8.92;71.69;99657.13;5115001;28;20088;-74
2021/11/17 12:10:46;;;;;;;0.10;0.10;;;;;;;8.85;71.17;99651.16;5112910;28;20057;-74
2021/11/17 12:13:24;;;;;;;0.82;0.47;;;;;;;8.85;71.76;99653.84;5114768;28;20493;-74
2021/11/17 12:16:05;;;;;;;0.00;0.00;;;;;;;8.86;72.02;99661.59;5113292;28;20502;-74
2021/11/17 12:18:43;;;;;;;0.00;0.00;;;;;;;8.90;71.98;99656.56;5112732;28;20063;-74
2021/11/17 12:21:13;;;;;;;0.03;0.03;;;;;;;8.81;71.66;99657.00;5114393;28;20027;-73
2021/11/17 12:23:42;;;;;;;0.35;0.35;;;;;;;8.90;71.85;99660.03;5113713;28;20023;-73
2021/11/17 12:26:19;;;;;;;0.00;0.00;;;;;;;8.92;71.66;99649.94;5114589;28;20052;-73
2021/11/17 12:29:01;;;;;;;0.00;0.00;;;;;;;9.02;71.72;99667.91;5114394;28;20028;-73
2021/11/17 12:31:31;;;;;;;0.43;0.43;;;;;;;8.97;71.68;99649.16;5114117;28;20106;-73
2021/11/17 12:34:16;;;;;;;0.00;0.00;;;;;;;9.08;71.89;99663.41;5113887;28;20042;-73
2021/11/17 12:37:44;;;;;;;0.00;0.00;;;;;;;9.08;71.47;99660.75;5113928;28;20020;-73
2021/11/17 12:40:58;;;;;;;0.00;0.00;;;;;;;9.00;68.43;99656.69;5068358;27;20047;-72
2021/11/17 12:44:01;;;;;;;0.00;0.00;;;;;;;8.94;69.08;99655.81;5109835;28;20494;-74
2021/11/17 12:46:35;;;;;;;0.88;0.88;;;;;;;8.97;68.65;99657.16;5084722;28;20211;-72
2021/11/17 12:49:22;;;;;;;0.00;0.00;;;;;;;8.92;68.72;99657.13;5113564;28;20023;-72
2021/11/17 12:51:58;;;;;;;0.00;0.00;;;;;;;8.82;68.19;99652.47;5111759;28;20081;-72
2021/11/17 12:54:23;;;;;;;0.00;0.00;;;;;;;8.91;69.30;99655.50;5113076;28;20019;-70
2021/11/17 12:56:56;;;;;;;0.00;0.00;;;;;;;8.84;69.08;99650.38;5112644;27;20032;-71
2021/11/17 12:59:27;;;;;;;0.00;0.00;;;;;;;8.86;69.15;99642.13;5113702;28;20440;-73
2021/11/17 13:01:55;;;;;;;0.10;0.10;;;;;;;8.97;69.51;99657.16;5113185;28;20032;-73
2021/11/17 13:04:40;;;;;;;0.00;0.00;;;;;;;8.96;68.40;99644.91;5111950;28;20031;-72
2021/11/17 13:07:09;;;;;;;0.00;0.00;;;;;;;8.84;67.66;99633.53;5113245;28;20043;-72
2021/11/17 13:09:41;;;;;;;0.00;0.00;;;;;;;8.91;67.66;99642.16;5113231;28;20114;-71
2021/11/17 13:12:07;;;;;;;0.57;0.57;;;;;;;8.87;67.67;99652.53;5092051;28;20036;-72
2021/11/17 13:14:42;;;;;;;0.10;0.10;;;;;;;8.81;67.53;99645.53;5093023;28;20039;-71
2021/11/17 13:17:20;;;;;;;0.05;0.05;;;;;;;8.80;67.16;99639.41;5093247;28;20039;-73
2021/11/17 13:19:51;;;;;;;0.00;0.00;;;;;;;8.71;67.61;99634.75;5093159;28;20024;-71
2021/11/17 13:22:33;;;;;;;0.00;0.00;;;;;;;8.65;68.00;99626.69;5091811;28;20032;-72
2021/11/17 13:25:21;;;;;;;0.00;0.00;;;;;;;8.66;68.58;99619.50;5103004;28;20024;-71
2021/11/17 13:27:47;;;;;;;;;;;;;;;8.75;68.38;99634.00;5112535;28;20035;-71
2021/11/17 13:30:39;;;;;;;0.00;0.00;;;;;;;8.72;68.48;99634.50;5113018;28;20294;-72
2021/11/17 13:33:23;;;;;;;0.00;0.00;;;;;;;8.69;68.97;99627.00;5113066;28;20156;-71
2021/11/17 13:36:08;;;;;;;0.05;0.05;;;;;;;8.68;68.90;99625.38;5113084;28;20059;-71
2021/11/17 13:38:36;;;;;;;0.00;0.00;;;;;;;8.67;68.91;99633.63;5092266;28;20032;-72
2021/11/17 13:41:07;;;;;;;0.00;0.00;;;;;;;8.67;69.37;99634.44;5107646;28;20023;-72
2021/11/17 13:43:35;;;;;;;0.00;0.00;;;;;;;8.67;69.10;99637.09;5112871;28;20030;-72
2021/11/17 13:46:08;;;;;;;0.00;0.00;;;;;;;8.72;69.68;99642.50;5112445;28;20071;-72
2021/11/17 13:48:39;;;;;;;0.00;0.00;;;;;;;8.71;69.28;99632.09;5112156;27;20075;-72
2021/11/17 13:51:05;;;;;;;0.00;0.00;;;;;;;8.73;69.20;99636.09;5112976;28;20024;-71
2021/11/17 13:53:30;;;;;;;0.00;0.00;;;;;;;8.71;68.42;99640.88;5112913;27;20161;-72
2021/11/17 13:56:10;;;;;;;0.10;0.10;;;;;;;8.75;68.63;99639.34;5111303;28;20028;-72
2021/11/17 13:58:35;;;;;;;0.00;0.00;;;;;;;8.76;68.31;99640.13;5092235;28;20107;-71
2021/11/17 14:01:03;;;;;;;0.00;0.00;;;;;;;8.73;69.14;99641.44;5092444;28;20162;-71
2021/11/17 14:03:31;;;;;;;0.00;0.00;;;;;;;8.76;68.71;99648.13;5094232;28;20039;-72
2021/11/17 14:05:59;;;;;;;0.00;0.00;;;;;;;8.76;69.31;99643.63;5112384;28;20083;-72
2021/11/17 14:08:24;;;;;;;0.00;0.00;;;;;;;8.68;68.97;99632.56;5112527;28;20463;-72
2021/11/17 14:10:50;;;;;;;0.00;0.00;;;;;;;8.77;68.85;99650.53;5112008;27;20035;-72
2021/11/17 14:13:15;;;;;;;0.00;0.00;;;;;;;8.70;68.95;99635.81;5112748;28;20030;-72
2021/11/17 14:15:41;;;;;;;0.22;0.22;;;;;;;8.80;69.45;99641.25;5111801;28;20024;-72
2021/11/17 14:18:09;;;;;;;0.00;0.00;;;;;;;8.73;68.49;99629.97;5112004;28;20564;-72
2021/11/17 14:20:35;;;;;;;0.00;0.00;;;;;;;8.84;68.56;99646.88;5112129;28;20034;-76
2021/11/17 14:23:01;;;;;;;0.00;0.00;;;;;;;8.68;68.87;99619.22;5110519;28;20031;-73
2021/11/17 14:25:28;;;;;;;0.00;0.00;;;;;;;8.83;68.66;99637.28;5110262;28;20023;-73
2021/11/17 14:27:59;;;;;;;0.30;0.30;;;;;;;8.80;68.49;99641.25;5111968;28;20031;-73
2021/11/17 14:30:33;;;;;;;0.00;0.00;;;;;;;8.68;68.81;99614.72;5110698;28;20028;-71
2021/11/17 14:32:58;;;;;;;0.00;0.00;;;;;;;8.75;68.61;99633.19;5111849;28;20039;-72
2021/11/17 14:35:27;;;;;;;0.63;0.63;;;;;;;8.84;69.04;99647.72;5111827;28;20020;-72
2021/11/17 14:37:54;;;;;;;0.00;0.00;;;;;;;8.86;68.55;99653.59;5111820;28;20535;-72
2021/11/17 14:40:21;;;;;;;0.00;0.00;;;;;;;8.68;68.40;99624.56;5111938;28;20031;-72
2021/11/17 14:42:47;;;;;;;0.00;0.00;;;;;;;8.87;68.87;99646.41;5110086;28;20030;-72
2021/11/17 14:45:19;;;;;;;0.00;0.00;;;;;;;8.78;68.59;99638.03;5111600;28;20487;-73
2021/11/17 14:47:45;;;;;;;0.00;0.00;;;;;;;8.76;68.62;99635.63;5111175;28;20031;-73
2021/11/17 14:50:12;;;;;;;0.00;0.00;;;;;;;8.86;68.87;99658.13;5110106;28;20118;-75
2021/11/17 14:52:40;;;;;;;0.00;0.00;;;;;;;8.73;68.88;99621.97;5111351;28;20538;-73
2021/11/17 14:55:08;;;;;;;0.00;0.00;;;;;;;8.56;69.19;99606.06;5109986;28;20035;-73